Time;durP1;ratioP1;P1;durP2;ratioP2;P2;SDS_P1;SDS_P2;PMS_P1;PMS_P2;Temp;Humidity;BMP_temperature;BMP_pressure;BME280_temperature;BME280_humidity;BME280_pressure;Samples;Min_cycle;Max_cycle;Signal;HPM_P1;HPM_P2
2024/03/22 00:01:01;;;;;;;1.20;0.95;;;17.90;66.60;;;;;;6169862;23;20187;-83
2024/03/22 00:03:31;;;;;;;2.28;0.98;;;17.90;66.90;;;;;;6171441;23;20149;-82
2024/03/22 00:06:03;;;;;;;1.60;0.90;;;18.00;66.70;;;;;;6171435;23;20217;-82
2024/03/22 00:08:30;;;;;;;1.05;0.95;;;18.00;66.50;;;;;;6170431;23;20142;-83
2024/03/22 00:11:03;;;;;;;0.95;0.77;;;18.00;66.80;;;;;;6171042;23;20459;-82
2024/03/22 00:13:31;;;;;;;1.45;0.93;;;18.00;66.80;;;;;;6146757;23;20151;-82
2024/03/22 00:15:57;;;;;;;2.03;1.00;;;18.00;67.30;;;;;;6146792;23;20150;-82
2024/03/22 00:18:23;;;;;;;0.88;0.85;;;18.00;66.70;;;;;;6146230;23;20192;-83
2024/03/22 00:20:55;;;;;;;1.65;1.20;;;17.90;67.00;;;;;;6170314;23;20871;-82
2024/03/22 00:23:21;;;;;;;1.65;0.95;;;18.00;66.90;;;;;;6168793;23;20237;-82
2024/03/22 00:25:52;;;;;;;1.13;0.98;;;17.90;66.40;;;;;;6170960;23;20304;-83
2024/03/22 00:28:22;;;;;;;1.30;1.20;;;18.00;66.60;;;;;;6170867;23;20143;-83
2024/03/22 00:30:48;;;;;;;1.30;1.08;;;17.90;66.50;;;;;;6120302;23;20150;-82
2024/03/22 00:33:23;;;;;;;1.20;0.80;;;18.00;66.60;;;;;;6195256;23;20219;-83
2024/03/22 00:35:54;;;;;;;0.90;0.80;;;18.00;66.70;;;;;;6169690;23;20154;-83
2024/03/22 00:38:27;;;;;;;1.60;1.35;;;17.90;66.70;;;;;;6121198;23;20690;-82
2024/03/22 00:40:54;;;;;;;1.45;1.20;;;18.00;66.80;;;;;;6194736;23;20233;-82
2024/03/22 00:43:21;;;;;;;1.25;1.00;;;17.90;66.80;;;;;;6146568;23;20138;-82
2024/03/22 00:45:48;;;;;;;1.20;0.90;;;17.90;66.60;;;;;;6146842;23;20194;-83
2024/03/22 00:48:15;;;;;;;1.00;0.90;;;17.90;66.50;;;;;;6146749;23;20143;-83
2024/03/22 00:50:46;;;;;;;1.10;1.00;;;17.90;66.80;;;;;;6146799;23;20191;-84
2024/03/22 00:53:12;;;;;;;1.15;1.05;;;17.90;66.30;;;;;;6144464;23;20151;-82
2024/03/22 00:55:38;;;;;;;1.10;1.00;;;17.90;66.50;;;;;;6170541;23;20670;-82
2024/03/22 00:58:08;;;;;;;1.27;0.90;;;17.90;67.40;;;;;;6145618;23;20139;-83
2024/03/22 01:00:36;;;;;;;1.13;1.00;;;17.90;66.90;;;;;;6169817;23;20147;-83
2024/03/22 01:03:05;;;;;;;1.10;1.00;;;17.90;67.00;;;;;;6093508;23;20175;-83
2024/03/22 01:05:31;;;;;;;1.05;0.95;;;17.90;66.90;;;;;;6073052;23;20193;-82
2024/03/22 01:07:57;;;;;;;0.80;0.73;;;17.90;66.70;;;;;;6144870;23;20178;-83
2024/03/22 01:10:24;;;;;;;1.20;1.00;;;17.80;66.50;;;;;;6171243;23;20138;-83
2024/03/22 01:12:52;;;;;;;1.40;1.30;;;17.90;66.60;;;;;;6170884;23;20134;-82
2024/03/22 01:15:21;;;;;;;1.67;1.27;;;18.00;66.80;;;;;;6170919;23;20143;-83
2024/03/22 01:17:52;;;;;;;1.25;1.05;;;17.90;66.50;;;;;;6146272;23;20150;-83
2024/03/22 01:20:19;;;;;;;1.20;1.02;;;17.90;66.50;;;;;;6119868;23;20150;-83
2024/03/22 01:22:45;;;;;;;0.90;0.90;;;17.80;66.60;;;;;;6145541;23;20151;-83
2024/03/22 01:25:12;;;;;;;1.38;1.10;;;17.90;66.70;;;;;;6170180;23;20236;-83
2024/03/22 01:27:44;;;;;;;1.38;1.00;;;17.90;67.10;;;;;;6145128;23;20151;-82
2024/03/22 01:30:15;;;;;;;0.80;0.80;;;17.80;66.50;;;;;;6096233;23;20154;-83
2024/03/22 01:32:41;;;;;;;0.98;0.88;;;17.90;66.80;;;;;;6120340;23;20158;-84
2024/03/22 01:35:10;;;;;;;1.20;0.90;;;17.80;67.00;;;;;;6171565;23;20169;-83
2024/03/22 01:37:36;;;;;;;1.10;0.98;;;17.80;66.90;;;;;;6120474;23;20155;-82
2024/03/22 01:40:05;;;;;;;1.00;0.93;;;17.90;66.50;;;;;;6146154;23;20474;-81
2024/03/22 01:42:42;;;;;;;1.20;1.02;;;17.80;66.90;;;;;;6171474;23;20154;-82
2024/03/22 01:45:10;;;;;;;1.30;1.00;;;17.70;66.90;;;;;;6120374;23;20194;-82
2024/03/22 01:47:41;;;;;;;1.33;1.00;;;17.70;67.00;;;;;;6146431;23;20131;-83
2024/03/22 01:50:08;;;;;;;1.45;1.10;;;17.80;67.00;;;;;;6095847;23;20150;-82
2024/03/22 01:52:33;;;;;;;1.15;1.00;;;17.80;66.70;;;;;;6170619;23;20203;-82
2024/03/22 01:55:01;;;;;;;1.50;1.13;;;17.80;67.20;;;;;;6169923;23;20187;-82
2024/03/22 01:57:28;;;;;;;1.08;0.90;;;17.80;66.80;;;;;;6119603;23;20237;-82
2024/03/22 01:59:56;;;;;;;1.05;0.90;;;17.80;67.10;;;;;;6145910;23;20151;-83
2024/03/22 02:02:25;;;;;;;2.25;1.27;;;17.80;67.00;;;;;;6161901;23;20198;-82
2024/03/22 02:04:51;;;;;;;1.75;1.10;;;17.80;66.70;;;;;;6145689;23;20232;-82
2024/03/22 02:07:17;;;;;;;1.73;1.10;;;17.80;67.50;;;;;;6145797;23;20143;-83
2024/03/22 02:09:44;;;;;;;0.98;0.80;;;17.80;66.80;;;;;;6194657;23;20141;-83
2024/03/22 02:12:10;;;;;;;1.95;1.10;;;17.80;66.70;;;;;;6170025;23;20147;-83
2024/03/22 02:14:37;;;;;;;1.30;1.20;;;17.80;66.70;;;;;;6170447;23;20231;-82
2024/03/22 02:17:02;;;;;;;1.77;1.10;;;17.80;66.60;;;;;;6145107;23;20210;-82
2024/03/22 02:19:29;;;;;;;1.20;1.00;;;17.80;66.50;;;;;;6171867;23;20138;-83
2024/03/22 02:21:59;;;;;;;1.35;1.00;;;17.70;67.00;;;;;;6147405;23;20582;-82
2024/03/22 02:24:32;;;;;;;1.38;1.10;;;17.80;67.00;;;;;;6197116;23;20193;-82
2024/03/22 02:27:04;;;;;;;1.02;0.93;;;17.70;67.20;;;;;;6196750;23;20142;-83
2024/03/22 02:29:32;;;;;;;1.60;1.13;;;17.80;67.10;;;;;;6147363;23;20147;-83
2024/03/22 02:31:59;;;;;;;2.63;1.25;;;17.70;66.60;;;;;;6196082;23;20197;-82
2024/03/22 02:34:26;;;;;;;1.27;0.93;;;17.80;67.00;;;;;;6147629;23;20154;-83
2024/03/22 02:36:52;;;;;;;2.45;1.20;;;17.70;67.00;;;;;;6172224;23;20143;-82
2024/03/22 02:39:18;;;;;;;1.33;0.93;;;17.80;66.90;;;;;;6147883;23;20198;-82
2024/03/22 02:41:44;;;;;;;1.60;0.90;;;17.80;66.80;;;;;;6147872;23;20202;-83
2024/03/22 02:44:10;;;;;;;1.73;0.95;;;17.80;67.20;;;;;;6170974;23;20154;-83
2024/03/22 02:46:37;;;;;;;1.38;1.17;;;17.70;67.00;;;;;;6196184;23;20139;-82
2024/03/22 02:49:03;;;;;;;1.50;1.10;;;17.70;66.80;;;;;;6170392;23;20741;-82
2024/03/22 02:51:34;;;;;;;1.88;1.20;;;17.70;66.60;;;;;;6171465;23;20168;-83
2024/03/22 02:54:01;;;;;;;1.35;1.02;;;17.80;67.00;;;;;;6121071;23;20450;-83
2024/03/22 02:56:31;;;;;;;1.05;0.95;;;17.70;67.00;;;;;;6172548;23;20665;-82
2024/03/22 02:58:58;;;;;;;1.42;1.10;;;17.70;66.70;;;;;;6121650;23;20150;-82
2024/03/22 03:01:24;;;;;;;2.03;1.20;;;17.70;67.00;;;;;;6136857;23;20191;-82
2024/03/22 03:03:51;;;;;;;1.60;1.27;;;17.80;66.90;;;;;;6141297;23;20198;-82
2024/03/22 03:06:19;;;;;;;1.45;1.20;;;17.80;66.60;;;;;;6141843;23;20218;-83
2024/03/22 03:08:47;;;;;;;1.10;1.00;;;17.80;67.00;;;;;;6118592;23;20809;-83
2024/03/22 03:11:17;;;;;;;1.10;1.00;;;17.70;67.00;;;;;;6141794;23;20143;-82
2024/03/22 03:13:43;;;;;;;1.23;1.00;;;17.70;66.90;;;;;;6143335;23;20144;-82
2024/03/22 03:16:16;;;;;;;1.20;1.10;;;17.70;68.00;;;;;;6117634;23;20476;-82
2024/03/22 03:18:46;;;;;;;1.30;1.15;;;17.70;66.70;;;;;;6092526;23;20147;-83
2024/03/22 03:21:17;;;;;;;1.35;1.10;;;17.70;67.30;;;;;;6068405;23;20151;-83
2024/03/22 03:23:44;;;;;;;1.10;0.98;;;17.60;67.20;;;;;;6068085;23;20151;-83
2024/03/22 03:26:12;;;;;;;2.05;1.33;;;17.60;67.10;;;;;;6141407;23;20179;-83
2024/03/22 03:28:43;;;;;;;1.52;1.10;;;17.70;67.20;;;;;;6142008;23;20203;-82
2024/03/22 03:31:12;;;;;;;1.08;1.00;;;17.70;67.20;;;;;;6069799;23;20155;-82
2024/03/22 03:33:40;;;;;;;1.08;0.98;;;17.60;67.20;;;;;;6068203;23;20166;-83
2024/03/22 03:36:05;;;;;;;1.02;0.95;;;17.70;67.40;;;;;;6067873;23;20165;-82
2024/03/22 03:38:31;;;;;;;1.83;1.23;;;17.60;67.40;;;;;;6141639;23;20156;-82
2024/03/22 03:41:01;;;;;;;1.58;1.10;;;17.60;66.50;;;;;;6141020;23;20191;-82
2024/03/22 03:43:27;;;;;;;1.20;0.90;;;17.70;66.70;;;;;;6044862;23;20595;-83
2024/03/22 03:45:54;;;;;;;1.13;1.00;;;17.70;67.00;;;;;;6141937;23;20190;-83
2024/03/22 03:48:21;;;;;;;1.30;1.00;;;17.70;68.00;;;;;;6117820;23;20152;-82
2024/03/22 03:50:54;;;;;;;0.85;0.80;;;17.70;66.90;;;;;;6117066;23;20144;-82
2024/03/22 03:53:21;;;;;;;1.90;1.10;;;17.70;66.90;;;;;;6117179;23;20146;-83
2024/03/22 03:55:49;;;;;;;1.50;1.23;;;17.70;66.90;;;;;;6141843;23;20486;-84
2024/03/22 03:58:17;;;;;;;1.55;1.30;;;17.70;66.90;;;;;;6058059;23;20153;-83
2024/03/22 04:00:43;;;;;;;1.48;1.00;;;17.60;67.10;;;;;;6082494;23;20149;-82
2024/03/22 04:03:09;;;;;;;1.13;1.02;;;17.60;66.80;;;;;;6034732;23;20588;-83
2024/03/22 04:05:35;;;;;;;1.13;0.93;;;17.70;67.10;;;;;;6035115;23;20352;-82
2024/03/22 04:08:03;;;;;;;1.15;1.00;;;17.60;67.20;;;;;;6034377;23;20156;-83
2024/03/22 04:10:29;;;;;;;1.27;1.10;;;17.60;67.00;;;;;;6035424;23;20133;-82
2024/03/22 04:12:58;;;;;;;2.22;1.10;;;17.70;67.00;;;;;;6034385;23;20257;-83
2024/03/22 04:15:26;;;;;;;1.42;1.33;;;17.60;67.00;;;;;;6058832;23;20145;-82
2024/03/22 04:17:54;;;;;;;1.05;0.90;;;17.70;67.10;;;;;;6058826;23;20153;-83
2024/03/22 04:20:20;;;;;;;1.38;1.25;;;17.60;66.70;;;;;;6035761;23;20540;-82
2024/03/22 04:22:49;;;;;;;1.27;1.00;;;17.60;67.10;;;;;;6034557;23;20164;-82
2024/03/22 04:25:15;;;;;;;1.20;1.10;;;17.60;66.70;;;;;;6058736;23;20185;-82
2024/03/22 04:27:42;;;;;;;1.45;1.02;;;17.60;66.70;;;;;;6058403;23;20232;-82
2024/03/22 04:30:10;;;;;;;1.67;1.00;;;17.70;67.00;;;;;;6086185;23;20425;-82
2024/03/22 04:32:36;;;;;;;1.70;1.20;;;17.60;67.10;;;;;;6117367;23;20148;-83
2024/03/22 04:35:06;;;;;;;1.08;0.98;;;17.60;67.00;;;;;;6116936;23;20175;-82
2024/03/22 04:37:32;;;;;;;1.35;1.25;;;17.60;66.80;;;;;;6118435;23;20167;-82
2024/03/22 04:39:58;;;;;;;1.23;1.00;;;17.60;67.10;;;;;;6117325;23;20143;-82
2024/03/22 04:42:23;;;;;;;1.15;1.00;;;17.60;67.40;;;;;;6117148;23;20147;-82
2024/03/22 04:44:50;;;;;;;1.70;1.10;;;17.60;67.00;;;;;;6116760;23;20182;-82
2024/03/22 04:47:16;;;;;;;1.15;0.95;;;17.60;67.30;;;;;;6117290;23;20144;-82
2024/03/22 04:49:42;;;;;;;1.33;1.20;;;17.60;67.30;;;;;;6117027;23;20147;-83
2024/03/22 04:52:08;;;;;;;1.13;1.00;;;17.60;67.20;;;;;;6116888;23;20143;-82
2024/03/22 04:54:38;;;;;;;1.83;1.38;;;17.50;67.10;;;;;;6116009;23;20152;-82
2024/03/22 04:57:06;;;;;;;1.00;0.90;;;17.60;67.20;;;;;;6117049;23;20142;-82
2024/03/22 04:59:33;;;;;;;1.55;1.10;;;17.60;66.90;;;;;;6141570;23;20142;-82
2024/03/22 05:01:58;;;;;;;1.83;1.30;;;17.60;67.00;;;;;;6157329;23;20208;-82
2024/03/22 05:04:26;;;;;;;1.42;1.05;;;17.60;67.10;;;;;;6145470;23;20641;-83
2024/03/22 05:06:53;;;;;;;1.27;1.10;;;17.60;67.20;;;;;;6146810;23;20135;-83
2024/03/22 05:09:19;;;;;;;1.00;0.90;;;17.60;67.00;;;;;;6145864;23;20151;-82
2024/03/22 05:11:49;;;;;;;0.98;0.88;;;17.60;67.10;;;;;;6170496;23;20614;-83
2024/03/22 05:14:18;;;;;;;1.60;1.20;;;17.60;67.20;;;;;;6146984;23;20181;-82
2024/03/22 05:16:49;;;;;;;1.05;0.93;;;17.60;67.10;;;;;;6145781;23;20151;-83
2024/03/22 05:19:15;;;;;;;1.45;1.10;;;17.60;67.20;;;;;;6146242;23;20158;-82
2024/03/22 05:21:40;;;;;;;1.38;1.10;;;17.60;67.20;;;;;;6146047;23;20142;-82
2024/03/22 05:24:07;;;;;;;1.50;1.20;;;17.50;67.20;;;;;;6195078;23;20130;-83
2024/03/22 05:26:37;;;;;;;1.35;1.05;;;17.50;67.20;;;;;;6145317;23;20162;-82
2024/03/22 05:29:05;;;;;;;1.20;1.10;;;17.50;67.70;;;;;;6194355;23;20139;-82
2024/03/22 05:31:33;;;;;;;1.50;1.10;;;17.60;67.00;;;;;;6170150;23;20162;-83
2024/03/22 05:34:00;;;;;;;1.20;1.10;;;17.60;67.00;;;;;;6145934;23;20159;-82
2024/03/22 05:36:28;;;;;;;1.23;1.13;;;17.60;67.00;;;;;;6195591;23;20131;-83
2024/03/22 05:38:57;;;;;;;1.13;1.02;;;17.60;66.90;;;;;;6170519;23;20131;-83
2024/03/22 05:41:24;;;;;;;1.67;1.20;;;17.60;67.00;;;;;;6170748;23;20146;-82
2024/03/22 05:43:52;;;;;;;1.30;0.93;;;17.60;67.00;;;;;;6194071;23;20226;-83
2024/03/22 05:46:18;;;;;;;1.25;1.10;;;17.60;67.00;;;;;;6169487;23;20167;-82
2024/03/22 05:48:44;;;;;;;1.92;0.90;;;17.60;67.00;;;;;;6169793;23;20159;-83
2024/03/22 05:51:11;;;;;;;1.38;1.20;;;17.60;67.00;;;;;;6169618;23;20147;-83
2024/03/22 05:53:37;;;;;;;1.58;1.20;;;17.60;66.90;;;;;;6145496;23;20175;-83
2024/03/22 05:56:03;;;;;;;1.17;1.08;;;17.60;67.10;;;;;;6172122;23;20131;-83
2024/03/22 05:58:29;;;;;;;1.10;1.00;;;17.60;66.90;;;;;;6171785;23;20147;-83
2024/03/22 06:00:55;;;;;;;1.25;1.15;;;17.60;67.00;;;;;;6172049;23;20165;-82
2024/03/22 06:03:22;;;;;;;1.40;0.98;;;17.50;66.80;;;;;;6148557;23;20247;-83
2024/03/22 06:05:54;;;;;;;1.20;1.10;;;17.60;66.70;;;;;;6146725;23;20256;-82
2024/03/22 06:08:21;;;;;;;1.90;1.15;;;17.60;66.90;;;;;;6148188;23;20147;-83
2024/03/22 06:10:49;;;;;;;1.20;1.10;;;17.50;67.00;;;;;;6148130;23;20162;-82
2024/03/22 06:13:15;;;;;;;1.20;1.10;;;17.50;67.00;;;;;;6147520;23;20139;-83
2024/03/22 06:15:45;;;;;;;1.27;1.15;;;17.50;67.40;;;;;;6147535;23;20147;-82
2024/03/22 06:18:12;;;;;;;1.17;1.00;;;17.50;67.30;;;;;;6148149;23;20139;-83
2024/03/22 06:20:39;;;;;;;1.05;0.95;;;17.50;67.10;;;;;;6147395;23;20147;-82
2024/03/22 06:23:06;;;;;;;1.30;1.20;;;17.50;67.40;;;;;;6147470;23;20143;-83
2024/03/22 06:25:32;;;;;;;1.50;1.08;;;17.50;67.10;;;;;;6174953;23;20622;-83
2024/03/22 06:28:00;;;;;;;1.15;1.05;;;17.50;67.40;;;;;;6175218;23;20127;-82
2024/03/22 06:30:27;;;;;;;1.67;1.23;;;17.50;67.50;;;;;;6174699;23;20463;-83
2024/03/22 06:32:53;;;;;;;1.83;1.15;;;17.40;67.30;;;;;;6175409;23;20138;-83
2024/03/22 06:35:22;;;;;;;1.70;1.23;;;17.50;67.00;;;;;;6175786;23;20135;-83
2024/03/22 06:37:48;;;;;;;1.35;1.17;;;17.50;67.20;;;;;;6151898;23;20139;-82
2024/03/22 06:40:17;;;;;;;2.75;1.30;;;17.40;66.70;;;;;;6176918;23;20131;-83
2024/03/22 06:42:45;;;;;;;1.25;1.15;;;17.50;67.10;;;;;;6151517;23;20222;-82
2024/03/22 06:45:11;;;;;;;1.50;1.20;;;17.50;67.20;;;;;;6152392;23;20170;-83
2024/03/22 06:47:37;;;;;;;1.40;1.10;;;17.50;66.90;;;;;;6176375;23;20128;-82
2024/03/22 06:50:04;;;;;;;1.95;0.82;;;17.50;67.10;;;;;;6176415;23;20135;-83
2024/03/22 06:52:32;;;;;;;1.10;0.90;;;17.50;67.20;;;;;;6200637;23;20166;-83
2024/03/22 06:54:58;;;;;;;1.00;0.90;;;17.40;67.10;;;;;;6150941;23;20634;-83
2024/03/22 06:57:28;;;;;;;1.30;1.20;;;17.50;67.00;;;;;;6176860;23;20134;-81
2024/03/22 06:59:56;;;;;;;1.38;1.13;;;17.50;67.30;;;;;;6176974;23;20167;-82
2024/03/22 07:02:21;;;;;;;1.10;1.00;;;17.50;67.00;;;;;;6152727;23;20199;-83
2024/03/22 07:04:47;;;;;;;1.23;1.13;;;17.50;66.90;;;;;;6152345;23;20178;-83
2024/03/22 07:07:13;;;;;;;1.35;1.10;;;17.50;66.70;;;;;;6153153;23;20575;-83
2024/03/22 07:09:39;;;;;;;1.35;1.25;;;17.50;66.80;;;;;;6153124;23;20474;-84
2024/03/22 07:12:06;;;;;;;1.58;1.10;;;17.60;66.70;;;;;;6153338;23;20133;-83
2024/03/22 07:14:32;;;;;;;1.20;1.10;;;17.50;66.70;;;;;;6152791;23;20174;-83
2024/03/22 07:16:58;;;;;;;1.92;1.40;;;17.50;66.40;;;;;;6177887;23;20135;-82
2024/03/22 07:19:24;;;;;;;1.65;1.20;;;17.50;66.70;;;;;;6178955;23;20127;-83
2024/03/22 07:21:50;;;;;;;1.13;1.00;;;17.60;66.30;;;;;;6176651;23;20131;-82
2024/03/22 07:24:17;;;;;;;1.40;1.17;;;17.60;66.30;;;;;;6150991;23;20154;-83
2024/03/22 07:26:43;;;;;;;1.27;1.13;;;17.60;65.80;;;;;;6151599;23;20143;-83
2024/03/22 07:29:09;;;;;;;1.63;1.20;;;17.60;66.30;;;;;;6151116;23;20139;-82
2024/03/22 07:31:35;;;;;;;1.30;1.20;;;17.70;65.80;;;;;;6151221;23;20162;-82
2024/03/22 07:34:03;;;;;;;1.27;1.15;;;17.70;65.60;;;;;;6151201;23;20134;-83
2024/03/22 07:36:30;;;;;;;1.00;0.90;;;17.70;66.00;;;;;;6150444;23;20469;-84
2024/03/22 07:38:58;;;;;;;1.20;1.10;;;17.60;65.80;;;;;;6151869;23;20143;-83
2024/03/22 07:41:24;;;;;;;1.65;1.20;;;17.60;65.40;;;;;;6200455;23;20127;-82
2024/03/22 07:43:52;;;;;;;1.15;1.05;;;17.70;65.80;;;;;;6151940;23;20142;-82
2024/03/22 07:46:18;;;;;;;1.50;1.13;;;17.60;66.30;;;;;;6148912;23;20177;-82
2024/03/22 07:48:44;;;;;;;1.20;1.10;;;17.60;65.80;;;;;;6151218;23;20146;-82
2024/03/22 07:51:11;;;;;;;1.30;1.20;;;17.60;66.00;;;;;;6175832;23;20127;-82
2024/03/22 07:53:37;;;;;;;1.10;1.00;;;17.60;65.80;;;;;;6151108;23;20163;-82
2024/03/22 07:56:03;;;;;;;1.17;1.08;;;17.60;65.60;;;;;;6150687;23;20230;-82
2024/03/22 07:58:30;;;;;;;1.35;1.13;;;17.60;65.80;;;;;;6175669;23;20135;-82
2024/03/22 08:00:56;;;;;;;1.02;1.00;;;17.60;65.40;;;;;;6150854;23;20590;-82
2024/03/22 08:03:22;;;;;;;1.02;0.90;;;17.60;65.70;;;;;;6171002;23;20135;-82
2024/03/22 08:05:50;;;;;;;1.17;1.05;;;17.60;67.00;;;;;;6170840;23;20644;-82
2024/03/22 08:08:15;;;;;;;1.75;1.00;;;17.60;66.00;;;;;;6170412;23;20131;-82
2024/03/22 08:10:43;;;;;;;1.10;1.00;;;17.60;65.80;;;;;;6146364;23;20151;-82
2024/03/22 08:13:10;;;;;;;1.30;1.20;;;17.60;65.70;;;;;;6172741;23;20440;-82
2024/03/22 08:15:36;;;;;;;0.80;0.80;;;17.60;65.40;;;;;;6148715;23;20166;-83
2024/03/22 08:18:03;;;;;;;1.70;1.15;;;17.60;65.10;;;;;;6147930;23;20151;-83
2024/03/22 08:20:30;;;;;;;1.48;1.10;;;17.60;64.60;;;;;;6172776;23;20173;-83
2024/03/22 08:23:00;;;;;;;1.30;1.00;;;17.70;63.80;;;;;;6197555;23;20567;-82
2024/03/22 08:25:28;;;;;;;1.10;1.00;;;17.70;64.10;;;;;;6148192;23;20382;-82
2024/03/22 08:27:55;;;;;;;1.17;0.95;;;17.60;65.60;;;;;;6172557;23;20135;-83
2024/03/22 08:30:22;;;;;;;1.40;1.25;;;17.70;64.70;;;;;;6148798;23;20151;-82
2024/03/22 08:32:48;;;;;;;1.38;1.20;;;17.70;64.40;;;;;;6175003;23;20141;-83
2024/03/22 08:35:15;;;;;;;1.52;1.00;;;17.70;64.40;;;;;;6174520;23;20132;-82
2024/03/22 08:37:42;;;;;;;1.10;0.95;;;17.80;64.90;;;;;;6175039;23;20147;-82
2024/03/22 08:40:08;;;;;;;1.25;1.17;;;17.70;64.90;;;;;;6151450;23;20154;-81
2024/03/22 08:42:36;;;;;;;1.25;1.00;;;17.70;64.80;;;;;;6176148;23;20151;-81
2024/03/22 08:45:05;;;;;;;1.02;0.93;;;17.70;64.20;;;;;;6175565;23;20171;-82
2024/03/22 08:47:35;;;;;;;1.38;1.05;;;17.70;65.40;;;;;;6151197;23;20146;-82
2024/03/22 08:50:04;;;;;;;1.30;1.10;;;17.70;63.90;;;;;;6202298;23;20159;-82
2024/03/22 08:52:32;;;;;;;0.90;0.80;;;17.70;64.70;;;;;;6176952;23;20498;-82
2024/03/22 08:54:58;;;;;;;1.70;1.20;;;17.80;64.10;;;;;;6175954;23;20158;-82
2024/03/22 08:57:28;;;;;;;1.10;1.00;;;17.80;64.10;;;;;;6114543;23;20544;-81
2024/03/22 08:59:56;;;;;;;1.08;0.93;;;17.80;64.10;;;;;;6116606;23;20148;-82
2024/03/22 09:02:21;;;;;;;1.20;1.00;;;17.80;65.00;;;;;;6114990;23;20196;-82
2024/03/22 09:04:47;;;;;;;1.20;1.10;;;17.70;65.20;;;;;;6114175;23;20180;-83
2024/03/22 09:07:17;;;;;;;1.20;1.10;;;17.70;65.60;;;;;;6115537;23;20152;-83
2024/03/22 09:09:44;;;;;;;2.88;1.05;;;17.70;65.50;;;;;;6142871;23;20192;-82
2024/03/22 09:12:13;;;;;;;1.15;1.00;;;17.70;65.30;;;;;;6144034;23;20159;-82
2024/03/22 09:14:46;;;;;;;1.30;1.15;;;17.70;64.70;;;;;;6119597;23;20151;-82
2024/03/22 09:17:20;;;;;;;1.15;1.02;;;17.70;65.00;;;;;;6116970;23;20160;-82
2024/03/22 09:19:55;;;;;;;0.80;0.80;;;17.70;65.70;;;;;;6116041;23;20182;-83
2024/03/22 09:22:21;;;;;;;1.27;1.17;;;17.70;64.50;;;;;;6142071;23;20144;-83
2024/03/22 09:24:54;;;;;;;2.63;1.20;;;17.70;65.00;;;;;;6115750;23;20183;-82
2024/03/22 09:27:25;;;;;;;1.10;1.00;;;17.70;64.40;;;;;;6122767;23;20144;-83
2024/03/22 09:29:53;;;;;;;1.00;0.90;;;17.80;64.80;;;;;;6174155;23;20478;-82
2024/03/22 09:32:19;;;;;;;1.33;1.08;;;17.70;64.30;;;;;;6146681;23;20147;-82
2024/03/22 09:34:45;;;;;;;1.35;1.10;;;17.80;64.30;;;;;;6147032;23;20170;-83
2024/03/22 09:37:12;;;;;;;1.30;1.02;;;17.70;64.00;;;;;;6148161;23;20143;-82
2024/03/22 09:39:39;;;;;;;0.80;0.80;;;17.80;64.30;;;;;;6147897;23;20143;-83
2024/03/22 09:42:06;;;;;;;1.23;0.98;;;17.70;65.70;;;;;;6173215;23;20169;-83
2024/03/22 09:44:39;;;;;;;1.15;1.05;;;17.80;64.70;;;;;;6172317;23;20163;-82
2024/03/22 09:47:08;;;;;;;1.52;1.10;;;17.70;64.80;;;;;;6200789;23;20195;-83
2024/03/22 09:49:38;;;;;;;1.63;1.13;;;17.70;64.60;;;;;;6174869;23;20574;-83
2024/03/22 09:52:07;;;;;;;2.47;0.93;;;17.80;64.70;;;;;;6170813;23;20570;-83
2024/03/22 09:54:33;;;;;;;1.17;1.08;;;17.80;64.50;;;;;;6169512;23;20154;-83
2024/03/22 09:56:58;;;;;;;1.05;0.95;;;17.80;64.40;;;;;;6146698;23;20169;-82
2024/03/22 09:59:26;;;;;;;2.03;1.08;;;17.80;64.70;;;;;;6170527;23;20130;-83
2024/03/22 10:02:00;;;;;;;1.13;1.00;;;17.80;64.90;;;;;;6145819;23;20198;-83
2024/03/22 10:04:26;;;;;;;1.13;1.02;;;17.80;64.30;;;;;;6173530;23;20241;-83
2024/03/22 10:06:53;;;;;;;1.35;1.15;;;17.80;64.50;;;;;;6148962;23;20139;-84
2024/03/22 10:09:18;;;;;;;1.58;1.00;;;17.80;63.70;;;;;;6149016;23;20139;-84
2024/03/22 10:11:44;;;;;;;1.42;0.98;;;17.80;64.30;;;;;;6148691;23;20200;-83
2024/03/22 10:14:11;;;;;;;1.02;0.93;;;17.80;63.80;;;;;;6198957;23;20127;-84
2024/03/22 10:16:38;;;;;;;1.20;1.10;;;17.80;64.10;;;;;;6149409;23;20146;-84
2024/03/22 10:19:05;;;;;;;1.98;0.90;;;17.80;64.40;;;;;;6149756;23;20146;-83
2024/03/22 10:21:38;;;;;;;1.08;0.98;;;17.80;64.60;;;;;;6175264;23;20210;-82
2024/03/22 10:24:08;;;;;;;1.90;1.20;;;17.80;64.30;;;;;;6170453;23;20151;-83
2024/03/22 10:26:38;;;;;;;1.25;1.15;;;17.90;64.30;;;;;;6142664;23;20268;-83
2024/03/22 10:29:06;;;;;;;1.10;1.00;;;17.80;63.80;;;;;;6170613;23;20143;-83
2024/03/22 10:31:37;;;;;;;1.15;0.88;;;17.80;63.60;;;;;;6168802;23;20183;-83
2024/03/22 10:34:04;;;;;;;1.38;0.82;;;17.90;63.80;;;;;;6144234;23;20140;-83
2024/03/22 10:36:31;;;;;;;1.20;1.10;;;17.90;63.80;;;;;;6143819;23;20155;-83
2024/03/22 10:38:58;;;;;;;2.53;1.00;;;17.90;64.00;;;;;;6161132;23;20155;-85
2024/03/22 10:41:24;;;;;;;2.47;1.17;;;17.80;63.80;;;;;;6132798;23;20146;-84
2024/03/22 10:43:58;;;;;;;1.13;1.00;;;17.90;64.50;;;;;;6161753;23;20143;-84
2024/03/22 10:46:27;;;;;;;0.98;0.88;;;17.90;64.00;;;;;;6161572;23;20973;-84
2024/03/22 10:48:57;;;;;;;1.10;1.00;;;17.90;63.80;;;;;;6135404;23;20154;-84
2024/03/22 10:51:25;;;;;;;1.50;1.10;;;17.90;64.10;;;;;;6160510;23;20170;-84
2024/03/22 10:53:54;;;;;;;3.83;1.13;;;17.90;64.00;;;;;;6126786;23;20931;-84
2024/03/22 10:56:20;;;;;;;2.47;1.02;;;17.90;64.30;;;;;;6080327;23;20161;-84
2024/03/22 10:58:47;;;;;;;3.17;1.48;;;18.00;64.30;;;;;;6059112;23;20149;-83
2024/03/22 11:01:33;;;;;;;1.95;1.00;;;17.90;64.20;;;;;;6088308;23;20196;-84
2024/03/22 11:04:06;;;;;;;0.77;0.77;;;17.90;64.50;;;;;;6113367;23;20160;-83
2024/03/22 11:06:37;;;;;;;1.00;0.88;;;17.90;64.10;;;;;;6088334;23;20160;-84
2024/03/22 11:09:07;;;;;;;1.08;0.90;;;18.00;64.10;;;;;;6144030;23;20156;-83
2024/03/22 11:11:37;;;;;;;0.82;0.82;;;17.90;64.30;;;;;;6089618;23;20236;-84
2024/03/22 11:14:05;;;;;;;1.10;1.00;;;17.90;64.30;;;;;;6092475;23;20152;-83
2024/03/22 11:16:32;;;;;;;1.13;1.00;;;17.90;64.30;;;;;;6086483;23;20159;-83
2024/03/22 11:18:59;;;;;;;0.90;0.90;;;18.00;64.20;;;;;;6133914;23;20184;-83
2024/03/22 11:21:25;;;;;;;1.00;0.90;;;17.90;63.50;;;;;;6109657;23;20136;-84
2024/03/22 11:23:51;;;;;;;2.22;1.02;;;18.00;63.20;;;;;;6115473;23;20179;-85
2024/03/22 11:26:17;;;;;;;1.10;0.90;;;18.00;63.80;;;;;;6150755;23;20183;-83
2024/03/22 11:28:44;;;;;;;0.80;0.80;;;18.00;63.70;;;;;;6152110;23;20150;-83
2024/03/22 11:31:12;;;;;;;1.77;1.10;;;18.00;63.80;;;;;;6177846;23;20139;-84
2024/03/22 11:33:45;;;;;;;1.98;0.82;;;18.00;63.00;;;;;;6150886;23;20175;-83
2024/03/22 11:36:14;;;;;;;1.73;0.90;;;18.00;63.30;;;;;;6175379;23;20157;-84
2024/03/22 11:38:41;;;;;;;1.10;0.90;;;18.00;63.40;;;;;;6173167;23;20131;-84
2024/03/22 11:41:07;;;;;;;1.70;0.95;;;18.00;63.80;;;;;;6198771;23;20139;-85
2024/03/22 11:43:33;;;;;;;1.30;1.00;;;18.00;63.40;;;;;;6194635;23;20137;-84
2024/03/22 11:46:02;;;;;;;1.10;1.00;;;18.00;63.30;;;;;;6169367;23;20209;-83
2024/03/22 11:48:27;;;;;;;1.20;0.98;;;18.00;63.60;;;;;;6169119;23;20134;-84
2024/03/22 11:51:01;;;;;;;1.13;0.93;;;18.00;63.40;;;;;;6144394;23;20470;-83
2024/03/22 11:53:27;;;;;;;1.20;1.10;;;18.00;63.80;;;;;;6166421;23;20221;-84
2024/03/22 11:55:54;;;;;;;1.58;0.93;;;18.00;64.00;;;;;;6146139;23;20151;-83
2024/03/22 11:58:20;;;;;;;0.85;0.85;;;18.00;63.80;;;;;;6149034;23;20151;-83
2024/03/22 12:00:46;;;;;;;1.10;1.00;;;18.00;64.00;;;;;;6144509;23;20213;-82
2024/03/22 12:03:13;;;;;;;0.95;0.90;;;18.00;63.40;;;;;;6144357;23;20187;-83
2024/03/22 12:05:40;;;;;;;2.47;1.00;;;18.10;63.00;;;;;;6147934;23;20175;-83
2024/03/22 12:08:06;;;;;;;0.80;0.80;;;18.00;63.20;;;;;;6173548;23;20123;-83
2024/03/22 12:10:32;;;;;;;1.08;0.90;;;18.10;63.10;;;;;;6147741;23;20217;-83
2024/03/22 12:12:58;;;;;;;0.93;0.90;;;18.10;62.70;;;;;;6176234;23;20214;-83
2024/03/22 12:15:24;;;;;;;0.80;0.80;;;18.20;63.00;;;;;;6174570;23;20239;-83
2024/03/22 12:17:49;;;;;;;1.15;0.98;;;18.10;63.00;;;;;;6151816;23;20706;-82
2024/03/22 12:20:25;;;;;;;1.17;0.90;;;18.20;63.20;;;;;;6151323;23;20142;-82
2024/03/22 12:22:55;;;;;;;1.02;0.90;;;18.20;62.70;;;;;;6152017;23;20142;-82
2024/03/22 12:25:22;;;;;;;0.88;0.88;;;18.20;63.00;;;;;;6176812;23;20599;-83
2024/03/22 12:27:47;;;;;;;1.63;1.00;;;18.20;62.80;;;;;;6177856;23;20219;-83
2024/03/22 12:30:13;;;;;;;1.10;1.00;;;18.10;62.60;;;;;;6152159;23;20151;-83
2024/03/22 12:32:40;;;;;;;1.02;0.93;;;18.20;62.70;;;;;;6177938;23;20134;-82
2024/03/22 12:35:09;;;;;;;1.05;0.90;;;18.20;62.10;;;;;;6177841;23;20138;-82
2024/03/22 12:37:37;;;;;;;1.30;1.02;;;18.20;62.50;;;;;;6204366;23;20142;-82
2024/03/22 12:40:04;;;;;;;0.95;0.90;;;18.20;62.40;;;;;;6153708;23;20143;-83
2024/03/22 12:42:34;;;;;;;1.17;0.93;;;18.20;62.70;;;;;;6152470;23;20136;-83
2024/03/22 12:45:01;;;;;;;0.82;0.70;;;18.20;62.80;;;;;;6175917;23;20170;-83
2024/03/22 12:47:26;;;;;;;1.00;0.82;;;18.20;62.90;;;;;;6147806;23;20165;-84
2024/03/22 12:50:20;;;;;;;1.30;0.68;;;18.10;62.80;;;;;;6200569;23;20138;-84